Hauptseite
METAR-TAF:

METAR-TAF

Flughäfen :

Prince Said Ibrahim International Airport

Moroni, Komoren

Breite: 11-32S, Länge: 043-16E, Höhe: 29 m

METAR: fehlend

Zeit: 08:11 (05:11 UTC)

Prognose

Neuester Wetterbericht von vor 6 Stunden und 11 Minuten, um 23:00 UTC
Gültige Prognose vom 21 um 00 UTC bis 22 um 06 UTC
Wind 6 kt aus Ost/Südost
Sichtweite 10 km oder mehr
Leicht bewölkt in der Höhe von 2000 ft
Übergehend zu
vom 21 um 05 UTC bis 21 um 07 UTC
Wind 15 kt aus Süd/Südwest
Übergehend zu
vom 21 um 16 UTC bis 21 um 18 UTC
Wind 5 kt aus Ost/Südost

TAF: FMCH 202300Z 2100/2206 12006KT 9999 FEW020 BECMG 2105/2107 20015KT BECMG 2116/2118 12005KT

Wetterbeobachtungen und Prognosen von mehr als 4000 Flughäfen (METAR und TAF Bericht).

Die verfügbaren Stationen werden durch gelbe und rote Markierungen auf der Karte dargestellt.

Führen Sie die Maus auf sie, um den Namen der Station zu sehen.

Darauf klicken, um die Beobachtung von Wetterbeobachtungen und Prognosen zu sehen.

Um die Karte zu ändern : klicken Sie auf den grünen Tasten mit einem schwarzen Kreuz Zum Vergrößern, auf den grünen Button mit einem Gedankenstrich zu verkleinern, oder auf die grünen Pfeile für benachbarte Karten.


METAR-TAF: